sensor_id;sensor_type;location;lat;lon;timestamp;pressure;altitude;pressure_sealevel;temperature;humidity
38400;BME280;24180;42.676;23.320;2023-09-19T00:00:19;95138.81;;;16.35;77.94
38400;BME280;24180;42.676;23.320;2023-09-19T00:02:55;95135.22;;;16.36;78.03
38400;BME280;24180;42.676;23.320;2023-09-19T00:05:28;95133.19;;;16.22;77.95
38400;BME280;24180;42.676;23.320;2023-09-19T00:07:56;95127.81;;;16.30;77.94
38400;BME280;24180;42.676;23.320;2023-09-19T00:10:27;95146.00;;;16.33;77.95
38400;BME280;24180;42.676;23.320;2023-09-19T00:12:57;95137.16;;;16.30;77.94
38400;BME280;24180;42.676;23.320;2023-09-19T00:15:26;95091.28;;;16.06;77.96
38400;BME280;24180;42.676;23.320;2023-09-19T00:17:56;95114.59;;;16.07;77.95
38400;BME280;24180;42.676;23.320;2023-09-19T00:20:23;95115.28;;;16.09;78.04
38400;BME280;24180;42.676;23.320;2023-09-19T00:22:50;95098.63;;;16.09;77.95
38400;BME280;24180;42.676;23.320;2023-09-19T00:25:17;95131.41;;;16.26;77.95
38400;BME280;24180;42.676;23.320;2023-09-19T00:27:43;95118.50;;;16.03;78.04
38400;BME280;24180;42.676;23.320;2023-09-19T00:30:11;95100.38;;;16.02;77.95
38400;BME280;24180;42.676;23.320;2023-09-19T00:32:41;95083.97;;;15.92;77.96
38400;BME280;24180;42.676;23.320;2023-09-19T00:35:07;95076.06;;;15.83;77.96
38400;BME280;24180;42.676;23.320;2023-09-19T00:37:36;95082.19;;;15.96;77.95
38400;BME280;24180;42.676;23.320;2023-09-19T00:40:03;95109.97;;;16.00;77.96
38400;BME280;24180;42.676;23.320;2023-09-19T00:42:31;95079.47;;;15.84;77.96
38400;BME280;24180;42.676;23.320;2023-09-19T00:44:56;95062.50;;;15.83;77.96
38400;BME280;24180;42.676;23.320;2023-09-19T00:47:22;95097.09;;;16.00;77.96
38400;BME280;24180;42.676;23.320;2023-09-19T00:49:48;95097.41;;;15.97;77.95
38400;BME280;24180;42.676;23.320;2023-09-19T00:52:18;95096.03;;;15.93;77.96
38400;BME280;24180;42.676;23.320;2023-09-19T00:54:47;95099.72;;;15.82;77.96
38400;BME280;24180;42.676;23.320;2023-09-19T00:57:14;95102.88;;;15.85;77.96
38400;BME280;24180;42.676;23.320;2023-09-19T00:59:41;95084.78;;;15.74;77.96
38400;BME280;24180;42.676;23.320;2023-09-19T01:02:07;95067.44;;;15.65;77.96
38400;BME280;24180;42.676;23.320;2023-09-19T01:04:34;95076.75;;;15.68;77.96
38400;BME280;24180;42.676;23.320;2023-09-19T01:06:59;95091.53;;;15.77;77.96
38400;BME280;24180;42.676;23.320;2023-09-19T01:09:25;95098.31;;;15.70;77.96
38400;BME280;24180;42.676;23.320;2023-09-19T01:11:53;95093.53;;;15.65;77.96
38400;BME280;24180;42.676;23.320;2023-09-19T01:14:45;95078.38;;;15.69;77.96
38400;BME280;24180;42.676;23.320;2023-09-19T01:17:30;95076.25;;;15.64;77.96
38400;BME280;24180;42.676;23.320;2023-09-19T01:23:10;95103.03;;;15.70;77.96
38400;BME280;24180;42.676;23.320;2023-09-19T01:28:34;95096.19;;;15.54;77.97
38400;BME280;24180;42.676;23.320;2023-09-19T01:31:09;95100.78;;;15.53;77.97
38400;BME280;24180;42.676;23.320;2023-09-19T01:34:02;95087.84;;;15.50;77.97
38400;BME280;24180;42.676;23.320;2023-09-19T01:36:34;95077.19;;;15.44;77.97
38400;BME280;24180;42.676;23.320;2023-09-19T01:39:03;95047.91;;;15.34;77.98
38400;BME280;24180;42.676;23.320;2023-09-19T01:41:59;95072.81;;;15.46;77.96
38400;BME280;24180;42.676;23.320;2023-09-19T01:47:13;95067.06;;;15.41;77.97
38400;BME280;24180;42.676;23.320;2023-09-19T01:49:48;95049.56;;;15.17;77.98
38400;BME280;24180;42.676;23.320;2023-09-19T01:52:17;95079.53;;;15.31;77.97
38400;BME280;24180;42.676;23.320;2023-09-19T01:54:49;95047.53;;;15.11;77.98
38400;BME280;24180;42.676;23.320;2023-09-19T01:57:22;95040.38;;;15.13;77.97
38400;BME280;24180;42.676;23.320;2023-09-19T02:00:05;95066.78;;;15.27;77.98
38400;BME280;24180;42.676;23.320;2023-09-19T02:02:36;95080.13;;;15.24;77.97
38400;BME280;24180;42.676;23.320;2023-09-19T02:05:03;95068.16;;;15.04;77.98
38400;BME280;24180;42.676;23.320;2023-09-19T02:07:29;95037.69;;;15.05;77.98
38400;BME280;24180;42.676;23.320;2023-09-19T02:09:57;95069.19;;;15.21;77.98
38400;BME280;24180;42.676;23.320;2023-09-19T02:12:24;95031.19;;;14.91;77.98
38400;BME280;24180;42.676;23.320;2023-09-19T02:14:49;95057.94;;;15.11;77.98
38400;BME280;24180;42.676;23.320;2023-09-19T02:17:15;95040.50;;;14.93;77.99
38400;BME280;24180;42.676;23.320;2023-09-19T02:19:41;95056.66;;;14.97;77.98
38400;BME280;24180;42.676;23.320;2023-09-19T02:22:06;95059.59;;;14.94;77.94
38400;BME280;24180;42.676;23.320;2023-09-19T02:24:33;95037.53;;;14.88;77.94
38400;BME280;24180;42.676;23.320;2023-09-19T02:26:59;95066.66;;;15.02;77.98
38400;BME280;24180;42.676;23.320;2023-09-19T02:29:29;95050.13;;;14.93;77.94
38400;BME280;24180;42.676;23.320;2023-09-19T02:31:55;95039.63;;;14.85;77.93
38400;BME280;24180;42.676;23.320;2023-09-19T02:34:21;94989.28;;;14.57;77.99
38400;BME280;24180;42.676;23.320;2023-09-19T02:36:47;95026.84;;;14.82;77.94
38400;BME280;24180;42.676;23.320;2023-09-19T02:39:12;95058.91;;;14.92;77.94
38400;BME280;24180;42.676;23.320;2023-09-19T02:41:38;95048.19;;;14.95;77.98
38400;BME280;24180;42.676;23.320;2023-09-19T02:44:04;95013.97;;;14.80;77.98
38400;BME280;24180;42.676;23.320;2023-09-19T02:46:35;94999.97;;;14.81;77.99
38400;BME280;24180;42.676;23.320;2023-09-19T02:49:03;95022.75;;;14.79;77.98
38400;BME280;24180;42.676;23.320;2023-09-19T02:51:31;95071.66;;;14.95;77.98
38400;BME280;24180;42.676;23.320;2023-09-19T02:53:59;95051.75;;;14.94;77.99
38400;BME280;24180;42.676;23.320;2023-09-19T02:56:24;95028.84;;;14.70;77.99
38400;BME280;24180;42.676;23.320;2023-09-19T02:58:50;95053.44;;;14.85;77.98
38400;BME280;24180;42.676;23.320;2023-09-19T03:01:16;95049.34;;;14.83;77.99
38400;BME280;24180;42.676;23.320;2023-09-19T03:03:44;95017.09;;;14.66;77.99
38400;BME280;24180;42.676;23.320;2023-09-19T03:06:10;95052.94;;;14.82;78.08
38400;BME280;24180;42.676;23.320;2023-09-19T03:08:39;95046.63;;;14.84;77.98
38400;BME280;24180;42.676;23.320;2023-09-19T03:11:08;95044.97;;;14.83;77.98
38400;BME280;24180;42.676;23.320;2023-09-19T03:13:36;60028.25;;;24.35;77.82
38400;BME280;24180;42.676;23.320;2023-09-19T03:16:03;60045.09;;;24.51;77.81
38400;BME280;24180;42.676;23.320;2023-09-19T03:18:31;95045.00;;;14.74;78.07
38400;BME280;24180;42.676;23.320;2023-09-19T03:20:57;95035.22;;;14.67;77.98
38400;BME280;24180;42.676;23.320;2023-09-19T03:23:25;95028.94;;;14.60;77.99
38400;BME280;24180;42.676;23.320;2023-09-19T03:25:51;95002.59;;;14.54;77.99
38400;BME280;24180;42.676;23.320;2023-09-19T03:28:21;95024.22;;;14.64;77.99
38400;BME280;24180;42.676;23.320;2023-09-19T03:30:57;95036.59;;;14.62;77.98
38400;BME280;24180;42.676;23.320;2023-09-19T03:33:23;95004.03;;;14.48;77.99
38400;BME280;24180;42.676;23.320;2023-09-19T03:35:52;95000.53;;;14.40;77.99
38400;BME280;24180;42.676;23.320;2023-09-19T03:38:19;95008.03;;;14.43;78.00
38400;BME280;24180;42.676;23.320;2023-09-19T03:40:44;95009.84;;;14.42;78.00
38400;BME280;24180;42.676;23.320;2023-09-19T03:43:10;95020.34;;;14.50;77.99
38400;BME280;24180;42.676;23.320;2023-09-19T03:45:35;95033.31;;;14.60;77.99
38400;BME280;24180;42.676;23.320;2023-09-19T03:48:01;95058.03;;;14.56;77.98
38400;BME280;24180;42.676;23.320;2023-09-19T03:50:27;95049.78;;;14.60;77.99
38400;BME280;24180;42.676;23.320;2023-09-19T03:52:56;95039.09;;;14.54;78.08
38400;BME280;24180;42.676;23.320;2023-09-19T03:55:22;95059.94;;;14.54;77.99
38400;BME280;24180;42.676;23.320;2023-09-19T03:57:48;95063.00;;;14.49;78.00
38400;BME280;24180;42.676;23.320;2023-09-19T04:00:14;95048.47;;;14.47;78.08
38400;BME280;24180;42.676;23.320;2023-09-19T04:02:43;95022.75;;;14.34;77.99
38400;BME280;24180;42.676;23.320;2023-09-19T04:05:09;95028.78;;;14.34;77.99
38400;BME280;24180;42.676;23.320;2023-09-19T04:07:35;95028.09;;;14.32;78.00
38400;BME280;24180;42.676;23.320;2023-09-19T04:10:01;95043.69;;;14.42;78.00
38400;BME280;24180;42.676;23.320;2023-09-19T04:12:28;95038.69;;;14.31;78.00
38400;BME280;24180;42.676;23.320;2023-09-19T04:14:53;95034.28;;;14.31;78.00
38400;BME280;24180;42.676;23.320;2023-09-19T04:17:18;95064.94;;;14.47;77.99
38400;BME280;24180;42.676;23.320;2023-09-19T04:19:44;95057.97;;;14.65;77.99
38400;BME280;24180;42.676;23.320;2023-09-19T04:22:11;95068.38;;;14.65;77.99
38400;BME280;24180;42.676;23.320;2023-09-19T04:24:37;95059.75;;;14.65;77.99
38400;BME280;24180;42.676;23.320;2023-09-19T04:27:04;95060.38;;;14.77;77.99
38400;BME280;24180;42.676;23.320;2023-09-19T04:29:29;95036.97;;;14.67;77.98
38400;BME280;24180;42.676;23.320;2023-09-19T04:31:55;95044.78;;;14.67;77.98
38400;BME280;24180;42.676;23.320;2023-09-19T04:34:22;95063.88;;;14.67;77.98
38400;BME280;24180;42.676;23.320;2023-09-19T04:36:49;95065.28;;;14.80;77.98
38400;BME280;24180;42.676;23.320;2023-09-19T04:39:15;95054.09;;;14.69;77.99
38400;BME280;24180;42.676;23.320;2023-09-19T04:41:41;95048.72;;;14.81;77.99
38400;BME280;24180;42.676;23.320;2023-09-19T04:44:07;95086.66;;;14.83;78.07
38400;BME280;24180;42.676;23.320;2023-09-19T04:46:33;95023.44;;;14.81;78.08
38400;BME280;24180;42.676;23.320;2023-09-19T04:48:59;95018.28;;;14.89;77.98
38400;BME280;24180;42.676;23.320;2023-09-19T04:51:24;95015.25;;;14.94;77.99
38400;BME280;24180;42.676;23.320;2023-09-19T04:53:52;95040.63;;;15.23;78.06
38400;BME280;24180;42.676;23.320;2023-09-19T04:56:17;95037.19;;;15.37;77.97
38400;BME280;24180;42.676;23.320;2023-09-19T04:58:42;95039.22;;;15.51;77.96
38400;BME280;24180;42.676;23.320;2023-09-19T05:01:08;95036.38;;;15.62;77.96
38400;BME280;24180;42.676;23.320;2023-09-19T05:03:37;95021.22;;;15.66;77.97
38400;BME280;24180;42.676;23.320;2023-09-19T05:06:02;95044.09;;;15.81;78.05
38400;BME280;24180;42.676;23.320;2023-09-19T05:08:29;95031.53;;;15.85;78.05
38400;BME280;24180;42.676;23.320;2023-09-19T05:10:54;95050.16;;;16.16;78.04
38400;BME280;24180;42.676;23.320;2023-09-19T05:13:21;95077.66;;;16.20;78.04
38400;BME280;24180;42.676;23.320;2023-09-19T05:15:49;95042.69;;;16.21;78.04
38400;BME280;24180;42.676;23.320;2023-09-19T05:18:15;95079.34;;;16.29;78.03
38400;BME280;24180;42.676;23.320;2023-09-19T05:20:41;95053.94;;;16.48;78.21
38400;BME280;24180;42.676;23.320;2023-09-19T05:23:07;95042.66;;;16.47;78.03
38400;BME280;24180;42.676;23.320;2023-09-19T05:25:35;95067.84;;;16.74;78.22
38400;BME280;24180;42.676;23.320;2023-09-19T05:28:09;95045.91;;;16.75;78.02
38400;BME280;24180;42.676;23.320;2023-09-19T05:30:37;95065.75;;;16.86;78.02
38400;BME280;24180;42.676;23.320;2023-09-19T05:33:04;95017.78;;;16.69;78.02
38400;BME280;24180;42.676;23.320;2023-09-19T05:35:30;95062.38;;;17.01;78.03
38400;BME280;24180;42.676;23.320;2023-09-19T05:37:58;95070.25;;;17.10;78.02
38400;BME280;24180;42.676;23.320;2023-09-19T05:40:24;95115.94;;;17.22;78.02
38400;BME280;24180;42.676;23.320;2023-09-19T05:42:50;95063.75;;;17.22;78.02
38400;BME280;24180;42.676;23.320;2023-09-19T05:45:16;95058.19;;;17.25;78.01
38400;BME280;24180;42.676;23.320;2023-09-19T05:47:48;95051.06;;;17.39;78.01
38400;BME280;24180;42.676;23.320;2023-09-19T05:50:14;95095.09;;;17.64;78.00
38400;BME280;24180;42.676;23.320;2023-09-19T05:52:42;95038.59;;;17.45;78.01
38400;BME280;24180;42.676;23.320;2023-09-19T05:55:08;95077.59;;;17.56;78.01
38400;BME280;24180;42.676;23.320;2023-09-19T05:57:37;60028.25;;;24.35;77.81
38400;BME280;24180;42.676;23.320;2023-09-19T06:00:08;95091.38;;;17.62;78.01
38400;BME280;24180;42.676;23.320;2023-09-19T06:02:37;95058.78;;;17.51;78.01
38400;BME280;24180;42.676;23.320;2023-09-19T06:05:04;95065.16;;;17.58;78.00
38400;BME280;24180;42.676;23.320;2023-09-19T06:07:32;95101.19;;;17.71;78.00
38400;BME280;24180;42.676;23.320;2023-09-19T06:10:05;95087.78;;;17.76;78.00
38400;BME280;24180;42.676;23.320;2023-09-19T06:12:32;95074.41;;;18.03;78.17
38400;BME280;24180;42.676;23.320;2023-09-19T06:15:00;95089.47;;;18.26;77.99
38400;BME280;24180;42.676;23.320;2023-09-19T06:17:25;95069.81;;;18.30;77.99
38400;BME280;24180;42.676;23.320;2023-09-19T06:19:52;95088.81;;;18.32;77.98
38400;BME280;24180;42.676;23.320;2023-09-19T06:22:18;95099.97;;;18.58;78.17
38400;BME280;24180;42.676;23.320;2023-09-19T06:24:44;95089.97;;;18.68;78.16
38400;BME280;24180;42.676;23.320;2023-09-19T06:27:09;95076.19;;;18.60;78.16
38400;BME280;24180;42.676;23.320;2023-09-19T06:29:35;95080.25;;;18.87;78.16
38400;BME280;24180;42.676;23.320;2023-09-19T06:32:07;95084.13;;;19.07;79.98
38400;BME280;24180;42.676;23.320;2023-09-19T06:34:33;95064.63;;;19.02;78.15
38400;BME280;24180;42.676;23.320;2023-09-19T06:36:59;95104.16;;;19.16;78.14
38400;BME280;24180;42.676;23.320;2023-09-19T06:39:24;95077.88;;;19.24;78.15
38400;BME280;24180;42.676;23.320;2023-09-19T06:41:51;95089.31;;;19.40;78.14
38400;BME280;24180;42.676;23.320;2023-09-19T06:44:19;95080.44;;;19.41;78.14
38400;BME280;24180;42.676;23.320;2023-09-19T06:46:46;59961.25;;;24.51;78.00
38400;BME280;24180;42.676;23.320;2023-09-19T06:49:17;95102.41;;;19.48;78.14
38400;BME280;24180;42.676;23.320;2023-09-19T06:51:42;95098.31;;;19.45;78.14
38400;BME280;24180;42.676;23.320;2023-09-19T06:54:09;59961.25;;;24.51;78.00
38400;BME280;24180;42.676;23.320;2023-09-19T06:56:34;95090.94;;;19.41;78.14
38400;BME280;24180;42.676;23.320;2023-09-19T06:59:00;95114.22;;;19.52;78.14
38400;BME280;24180;42.676;23.320;2023-09-19T07:01:27;95096.16;;;19.57;78.14
38400;BME280;24180;42.676;23.320;2023-09-19T07:03:53;59961.25;;;24.51;78.00
38400;BME280;24180;42.676;23.320;2023-09-19T07:06:18;95081.63;;;19.68;78.13
38400;BME280;24180;42.676;23.320;2023-09-19T07:08:44;95137.72;;;19.93;78.13
38400;BME280;24180;42.676;23.320;2023-09-19T07:11:10;95089.81;;;19.70;78.14
38400;BME280;24180;42.676;23.320;2023-09-19T07:13:38;95088.56;;;19.69;78.14
38400;BME280;24180;42.676;23.320;2023-09-19T07:16:04;95126.91;;;19.80;78.13
38400;BME280;24180;42.676;23.320;2023-09-19T07:18:30;59961.25;;;24.51;78.00
38400;BME280;24180;42.676;23.320;2023-09-19T07:20:57;95120.97;;;19.89;78.13
38400;BME280;24180;42.676;23.320;2023-09-19T07:23:26;95120.97;;;19.89;78.13
38400;BME280;24180;42.676;23.320;2023-09-19T07:25:56;95116.84;;;19.90;78.13
38400;BME280;24180;42.676;23.320;2023-09-19T07:28:22;95109.56;;;20.05;78.13
38400;BME280;24180;42.676;23.320;2023-09-19T07:30:48;95111.03;;;20.35;78.11
38400;BME280;24180;42.676;23.320;2023-09-19T07:33:13;95113.34;;;20.34;78.11
38400;BME280;24180;42.676;23.320;2023-09-19T07:35:39;59961.25;;;24.51;78.00
38400;BME280;24180;42.676;23.320;2023-09-19T07:38:06;60130.03;;;26.14;78.00
38400;BME280;24180;42.676;23.320;2023-09-19T07:40:31;59961.25;;;24.51;78.00
38400;BME280;24180;42.676;23.320;2023-09-19T07:42:57;59961.25;;;24.51;78.00
38400;BME280;24180;42.676;23.320;2023-09-19T07:45:30;59961.25;;;24.51;78.00
38400;BME280;24180;42.676;23.320;2023-09-19T07:47:56;59961.25;;;24.51;78.00
38400;BME280;24180;42.676;23.320;2023-09-19T07:50:22;60130.03;;;25.82;77.98
38400;BME280;24180;42.676;23.320;2023-09-19T07:52:48;59961.25;;;24.51;78.00
38400;BME280;24180;42.676;23.320;2023-09-19T07:55:18;59961.25;;;24.51;78.00
38400;BME280;24180;42.676;23.320;2023-09-19T07:57:48;59961.25;;;24.51;78.00
38400;BME280;24180;42.676;23.320;2023-09-19T08:00:14;60130.03;;;26.14;78.00
38400;BME280;24180;42.676;23.320;2023-09-19T08:02:40;59961.25;;;24.51;78.00
38400;BME280;24180;42.676;23.320;2023-09-19T08:05:07;59961.25;;;24.51;78.00
38400;BME280;24180;42.676;23.320;2023-09-19T08:07:39;59961.25;;;24.51;78.00
38400;BME280;24180;42.676;23.320;2023-09-19T08:10:06;59961.25;;;24.51;78.00
38400;BME280;24180;42.676;23.320;2023-09-19T08:12:42;59961.25;;;24.51;78.00
38400;BME280;24180;42.676;23.320;2023-09-19T08:15:19;59961.25;;;24.51;78.00
38400;BME280;24180;42.676;23.320;2023-09-19T08:17:45;59961.25;;;24.51;78.00
38400;BME280;24180;42.676;23.320;2023-09-19T08:20:10;59961.25;;;24.51;78.00
38400;BME280;24180;42.676;23.320;2023-09-19T08:22:43;59961.25;;;24.51;78.00
38400;BME280;24180;42.676;23.320;2023-09-19T08:25:11;59961.25;;;24.51;77.98
38400;BME280;24180;42.676;23.320;2023-09-19T08:27:37;59961.25;;;24.51;78.00
38400;BME280;24180;42.676;23.320;2023-09-19T08:30:02;59961.25;;;24.51;78.00
38400;BME280;24180;42.676;23.320;2023-09-19T08:32:28;59961.25;;;24.51;77.94
38400;BME280;24180;42.676;23.320;2023-09-19T08:34:54;59961.25;;;24.51;78.00
38400;BME280;24180;42.676;23.320;2023-09-19T08:37:19;59961.25;;;24.51;78.00
38400;BME280;24180;42.676;23.320;2023-09-19T08:39:45;59961.25;;;24.51;77.98
38400;BME280;24180;42.676;23.320;2023-09-19T08:42:11;59961.25;;;24.51;78.00
38400;BME280;24180;42.676;23.320;2023-09-19T08:44:38;59961.25;;;24.51;78.00
38400;BME280;24180;42.676;23.320;2023-09-19T08:47:10;59793.53;;;24.51;78.00
38400;BME280;24180;42.676;23.320;2023-09-19T08:52:27;59961.25;;;24.51;78.00
38400;BME280;24180;42.676;23.320;2023-09-19T08:54:57;59961.25;;;24.51;78.00
38400;BME280;24180;42.676;23.320;2023-09-19T08:57:25;59961.25;;;24.51;78.00
38400;BME280;24180;42.676;23.320;2023-09-19T08:59:55;59961.25;;;24.51;78.00
38400;BME280;24180;42.676;23.320;2023-09-19T09:02:22;60130.03;;;26.14;78.32
38400;BME280;24180;42.676;23.320;2023-09-19T09:04:49;60130.03;;;24.51;77.94
38400;BME280;24180;42.676;23.320;2023-09-19T09:07:16;59961.25;;;24.51;77.98
38400;BME280;24180;42.676;23.320;2023-09-19T09:09:44;59961.25;;;24.51;78.00
38400;BME280;24180;42.676;23.320;2023-09-19T09:12:14;59995.00;;;24.51;77.98
38400;BME280;24180;42.676;23.320;2023-09-19T09:14:44;59995.00;;;24.51;78.00
38400;BME280;24180;42.676;23.320;2023-09-19T09:17:10;60130.03;;;24.51;78.00
38400;BME280;24180;42.676;23.320;2023-09-19T09:19:37;59827.19;;;24.51;79.85
38400;BME280;24180;42.676;23.320;2023-09-19T09:22:10;59827.19;;;24.51;78.37
38400;BME280;24180;42.676;23.320;2023-09-19T09:24:36;51211.53;;;45.18;79.88
38400;BME280;24180;42.676;23.320;2023-09-19T09:27:06;59995.00;;;24.51;78.32
38400;BME280;24180;42.676;23.320;2023-09-19T09:29:46;59793.53;;;24.51;78.37
38400;BME280;24180;42.676;23.320;2023-09-19T09:34:44;59995.00;;;24.51;78.32
38400;BME280;24180;42.676;23.320;2023-09-19T09:37:14;59827.19;;;24.84;78.35
38400;BME280;24180;42.676;23.320;2023-09-19T09:39:58;59793.53;;;24.51;78.32
38400;BME280;24180;42.676;23.320;2023-09-19T09:42:36;59156.06;;;24.51;78.00
38400;BME280;24180;42.676;23.320;2023-09-19T09:45:22;59122.75;;;25.82;78.37
38400;BME280;24180;42.676;23.320;2023-09-19T09:48:03;59995.00;;;24.84;78.37
38400;BME280;24180;42.676;23.320;2023-09-19T09:50:36;59156.06;;;24.84;78.35
38400;BME280;24180;42.676;23.320;2023-09-19T09:53:26;59156.06;;;24.84;79.80
38400;BME280;24180;42.676;23.320;2023-09-19T09:58:23;59289.31;;;24.84;79.83
38400;BME280;24180;42.676;23.320;2023-09-19T10:00:57;59289.31;;;24.84;79.80
38400;BME280;24180;42.676;23.320;2023-09-19T10:03:32;59289.31;;;24.84;79.85
38400;BME280;24180;42.676;23.320;2023-09-19T10:05:59;59289.31;;;24.84;79.83
38400;BME280;24180;42.676;23.320;2023-09-19T10:08:27;59289.31;;;24.84;79.80
38400;BME280;24180;42.676;23.320;2023-09-19T10:10:56;59289.31;;;24.84;79.83
38400;BME280;24180;42.676;23.320;2023-09-19T10:13:32;59827.19;;;24.84;78.32
38400;BME280;24180;42.676;23.320;2023-09-19T10:16:06;59961.88;;;24.51;78.37
38400;BME280;24180;42.676;23.320;2023-09-19T10:18:36;59827.19;;;24.84;78.35
38400;BME280;24180;42.676;23.320;2023-09-19T10:21:04;59289.31;;;24.84;78.35
38400;BME280;24180;42.676;23.320;2023-09-19T10:23:32;59961.88;;;24.84;79.80
38400;BME280;24180;42.676;23.320;2023-09-19T10:26:01;59289.31;;;24.84;79.83
38400;BME280;24180;42.676;23.320;2023-09-19T10:28:27;59827.19;;;24.84;79.83
38400;BME280;24180;42.676;23.320;2023-09-19T10:30:56;59827.19;;;24.51;78.35
38400;BME280;24180;42.676;23.320;2023-09-19T10:33:24;59793.53;;;24.51;78.37
38400;BME280;24180;42.676;23.320;2023-09-19T10:35:56;59827.19;;;24.51;78.35
38400;BME280;24180;42.676;23.320;2023-09-19T10:38:26;59156.06;;;24.84;78.35
38400;BME280;24180;42.676;23.320;2023-09-19T10:40:54;59995.00;;;24.51;78.32
38400;BME280;24180;42.676;23.320;2023-09-19T10:43:21;59827.19;;;24.51;78.37
38400;BME280;24180;42.676;23.320;2023-09-19T10:45:51;59827.19;;;24.51;78.35
38400;BME280;24180;42.676;23.320;2023-09-19T10:48:20;59289.31;;;26.80;79.80
38400;BME280;24180;42.676;23.320;2023-09-19T10:51:05;59827.19;;;24.51;78.37
38400;BME280;24180;42.676;23.320;2023-09-19T10:54:05;59827.19;;;24.51;78.37
38400;BME280;24180;42.676;23.320;2023-09-19T10:56:36;59827.19;;;24.51;78.00
38400;BME280;24180;42.676;23.320;2023-09-19T10:59:13;59961.25;;;24.51;77.98
38400;BME280;24180;42.676;23.320;2023-09-19T11:01:43;59827.19;;;24.51;78.00
38400;BME280;24180;42.676;23.320;2023-09-19T11:04:32;59961.25;;;24.51;78.37
38400;BME280;24180;42.676;23.320;2023-09-19T11:07:08;59827.19;;;24.51;78.37
38400;BME280;24180;42.676;23.320;2023-09-19T11:09:49;59827.19;;;24.51;78.37
38400;BME280;24180;42.676;23.320;2023-09-19T11:14:58;59827.19;;;24.51;78.37
38400;BME280;24180;42.676;23.320;2023-09-19T11:17:30;59793.53;;;24.51;78.35
38400;BME280;24180;42.676;23.320;2023-09-19T11:30:44;59827.19;;;24.51;78.37
38400;BME280;24180;42.676;23.320;2023-09-19T11:33:23;59793.53;;;24.51;78.37
38400;BME280;24180;42.676;23.320;2023-09-19T11:36:15;59961.25;;;24.51;78.35
38400;BME280;24180;42.676;23.320;2023-09-19T11:43:53;59827.19;;;24.84;79.83
38400;BME280;24180;42.676;23.320;2023-09-19T11:46:21;59289.31;;;24.84;79.80
38400;BME280;24180;42.676;23.320;2023-09-19T11:48:50;59289.31;;;24.84;79.80
38400;BME280;24180;42.676;23.320;2023-09-19T11:51:23;59289.31;;;24.84;79.80
38400;BME280;24180;42.676;23.320;2023-09-19T11:53:54;59289.31;;;24.84;79.80
38400;BME280;24180;42.676;23.320;2023-09-19T11:56:24;59961.88;;;24.84;79.83
38400;BME280;24180;42.676;23.320;2023-09-19T11:58:52;59289.31;;;24.84;79.80
38400;BME280;24180;42.676;23.320;2023-09-19T12:01:23;59156.06;;;24.84;78.35
38400;BME280;24180;42.676;23.320;2023-09-19T12:03:53;59156.06;;;24.84;79.83
38400;BME280;24180;42.676;23.320;2023-09-19T12:06:19;59289.31;;;24.84;79.80
38400;BME280;24180;42.676;23.320;2023-09-19T12:08:47;59289.31;;;24.84;79.80
38400;BME280;24180;42.676;23.320;2023-09-19T12:11:14;59289.31;;;24.84;79.83
38400;BME280;24180;42.676;23.320;2023-09-19T12:13:44;59289.31;;;24.84;79.83
38400;BME280;24180;42.676;23.320;2023-09-19T12:16:15;59827.19;;;24.51;78.32
38400;BME280;24180;42.676;23.320;2023-09-19T12:18:41;59961.88;;;24.84;78.32
38400;BME280;24180;42.676;23.320;2023-09-19T12:21:21;59156.06;;;24.84;79.85
38400;BME280;24180;42.676;23.320;2023-09-19T12:26:23;59827.19;;;24.84;78.32
38400;BME280;24180;42.676;23.320;2023-09-19T12:28:49;59793.53;;;24.51;78.37
38400;BME280;24180;42.676;23.320;2023-09-19T12:31:17;59793.53;;;24.51;78.37
38400;BME280;24180;42.676;23.320;2023-09-19T12:33:44;59827.19;;;24.51;79.85
38400;BME280;24180;42.676;23.320;2023-09-19T12:36:23;59827.19;;;24.51;78.35
38400;BME280;24180;42.676;23.320;2023-09-19T12:38:58;59156.06;;;24.84;78.35
38400;BME280;24180;42.676;23.320;2023-09-19T12:41:25;59156.06;;;24.84;79.83
38400;BME280;24180;42.676;23.320;2023-09-19T12:43:52;59827.19;;;24.51;78.32
38400;BME280;24180;42.676;23.320;2023-09-19T12:46:21;59827.19;;;24.51;78.35
38400;BME280;24180;42.676;23.320;2023-09-19T12:51:42;59827.19;;;24.84;78.32
38400;BME280;24180;42.676;23.320;2023-09-19T12:54:09;59156.06;;;24.51;79.83
38400;BME280;24180;42.676;23.320;2023-09-19T12:56:42;59827.19;;;24.51;78.35
38400;BME280;24180;42.676;23.320;2023-09-19T12:59:14;59289.31;;;24.84;79.83
38400;BME280;24180;42.676;23.320;2023-09-19T13:01:42;59827.19;;;24.84;78.35
38400;BME280;24180;42.676;23.320;2023-09-19T13:04:20;59827.19;;;24.51;78.37
38400;BME280;24180;42.676;23.320;2023-09-19T13:06:55;59827.19;;;24.84;79.83
38400;BME280;24180;42.676;23.320;2023-09-19T13:09:26;59156.06;;;24.84;79.80
38400;BME280;24180;42.676;23.320;2023-09-19T13:12:00;59289.31;;;24.51;78.35
38400;BME280;24180;42.676;23.320;2023-09-19T13:14:28;59827.19;;;24.84;79.83
38400;BME280;24180;42.676;23.320;2023-09-19T13:17:03;59156.06;;;24.84;78.35
38400;BME280;24180;42.676;23.320;2023-09-19T13:19:49;59289.31;;;24.51;79.80
38400;BME280;24180;42.676;23.320;2023-09-19T13:25:12;59827.19;;;24.51;78.37
38400;BME280;24180;42.676;23.320;2023-09-19T13:27:44;59827.19;;;24.84;79.83
38400;BME280;24180;42.676;23.320;2023-09-19T13:30:11;59289.31;;;24.84;78.37
38400;BME280;24180;42.676;23.320;2023-09-19T13:32:36;59961.88;;;24.84;78.32
38400;BME280;24180;42.676;23.320;2023-09-19T13:35:03;59289.31;;;24.84;79.80
38400;BME280;24180;42.676;23.320;2023-09-19T13:37:30;59289.31;;;24.84;79.80
38400;BME280;24180;42.676;23.320;2023-09-19T13:39:56;59289.31;;;24.84;79.80
38400;BME280;24180;42.676;23.320;2023-09-19T13:42:24;59289.31;;;24.84;79.80